createdAt,value
2023-03-18T01:38:17.609Z,39.84
2023-03-18T01:55:17.389Z,39.75
2023-03-18T01:56:17.392Z,39.73
2023-03-18T01:57:17.454Z,39.72
2023-03-18T01:58:17.499Z,39.72
2023-03-18T01:59:17.512Z,39.71
2023-03-18T02:00:17.548Z,39.71
2023-03-18T02:01:17.600Z,39.70
2023-03-18T02:02:17.605Z,39.70
2023-03-18T02:03:17.633Z,39.70
2023-03-18T02:04:17.655Z,39.64
2023-03-18T02:10:17.936Z,39.73
2023-03-18T02:12:18.002Z,39.68
2023-03-18T05:53:25.001Z,38.85
2023-03-18T05:54:25.074Z,38.83
2023-03-18T05:55:25.183Z,38.81
2023-03-18T05:56:25.234Z,38.82
2023-03-18T05:57:25.326Z,38.79
2023-03-18T05:58:25.395Z,38.79
2023-03-18T05:59:25.491Z,38.79
2023-03-18T06:00:25.588Z,38.77
2023-03-18T06:01:26.110Z,38.74
2023-03-18T06:02:25.771Z,38.76
2023-03-18T06:03:25.862Z,38.74
2023-03-18T06:04:26.706Z,38.74
2023-03-18T06:05:25.970Z,38.68
2023-03-18T06:06:26.035Z,38.72
2023-03-18T06:07:26.111Z,38.67
2023-03-18T06:08:26.192Z,38.68
2023-03-18T06:09:26.258Z,38.66
2023-03-18T06:10:26.360Z,38.64
2023-03-18T06:11:26.421Z,38.63
2023-03-18T06:12:26.504Z,38.64
2023-03-18T06:13:26.577Z,38.63
2023-03-18T06:14:26.656Z,38.58
2023-03-18T06:15:26.737Z,38.59
2023-03-18T06:16:26.796Z,38.61
2023-03-18T06:17:26.838Z,38.61
2023-03-18T06:18:26.889Z,38.59
2023-03-18T06:19:26.923Z,38.60
2023-03-18T06:20:26.993Z,38.58
2023-03-18T06:21:27.054Z,38.59
2023-03-18T06:22:27.140Z,38.54
2023-03-18T06:23:27.219Z,38.54
2023-03-18T06:24:27.292Z,38.56
2023-03-18T06:25:27.370Z,38.55
2023-03-18T06:26:27.428Z,38.57
2023-03-18T06:27:27.522Z,38.57
2023-03-18T06:28:27.573Z,38.56
2023-03-18T06:29:27.644Z,38.55
2023-03-18T06:30:27.712Z,38.55
2023-03-18T06:31:27.834Z,38.54
2023-03-18T06:32:28.014Z,38.49
2023-03-18T06:33:27.881Z,38.53
2023-03-18T08:33:34.993Z,37.88
2023-03-18T08:35:35.147Z,37.83
2023-03-18T08:43:37.980Z,37.76
2023-03-18T08:59:35.867Z,37.72
2023-03-18T09:00:36.769Z,37.74
2023-03-18T09:01:35.905Z,37.72
2023-03-18T09:02:35.874Z,37.73
2023-03-18T09:03:35.937Z,37.70
2023-03-18T09:04:35.879Z,37.68
2023-03-18T09:05:35.917Z,37.67
2023-03-18T09:06:36.771Z,37.67
2023-03-18T09:07:35.896Z,37.69
2023-03-18T09:08:35.908Z,37.70
2023-03-18T09:09:43.430Z,37.69
2023-03-18T09:10:37.027Z,37.70
2023-03-18T09:11:35.911Z,37.68
2023-03-18T09:13:39.006Z,37.67
2023-03-18T09:14:35.945Z,37.64
2023-03-18T09:15:35.950Z,37.67
2023-03-18T09:16:35.972Z,37.68
2023-03-18T09:17:53.484Z,37.67
2023-03-18T09:19:35.951Z,37.63
2023-03-18T09:20:35.969Z,37.67
2023-03-18T09:21:35.959Z,37.61
2023-03-18T09:22:35.946Z,37.66
2023-03-18T09:24:35.969Z,37.61
2023-03-18T09:25:36.013Z,37.59
2023-03-18T09:26:35.958Z,37.61
2023-03-18T09:27:36.013Z,37.62
2023-03-18T09:28:36.124Z,37.62
2023-03-18T09:29:36.165Z,37.60
2023-03-18T09:30:36.396Z,37.60
2023-03-18T09:31:36.311Z,37.59
2023-03-18T09:32:36.397Z,37.57
2023-03-18T09:33:36.456Z,37.56
2023-03-18T09:34:36.519Z,37.54
2023-03-18T09:35:36.742Z,37.54
2023-03-18T09:36:36.676Z,37.54
2023-03-18T09:37:36.737Z,37.54
2023-03-18T09:38:36.852Z,37.51
2023-03-18T09:39:36.928Z,37.51
2023-03-18T09:40:38.396Z,37.50
2023-03-18T09:41:37.015Z,37.52
2023-03-18T09:42:37.126Z,37.51
2023-03-18T09:43:37.165Z,37.46
2023-03-18T09:44:37.314Z,37.47
2023-03-18T09:45:37.297Z,37.48
2023-03-18T09:46:37.452Z,37.46
2023-03-18T09:47:37.434Z,37.49
2023-03-18T09:48:37.505Z,37.47
2023-03-18T09:49:37.611Z,37.49
2023-03-18T09:50:37.647Z,37.47
2023-03-18T09:51:37.727Z,37.46
2023-03-18T09:52:37.802Z,37.41
2023-03-18T09:53:37.939Z,37.45
2023-03-18T09:54:37.982Z,37.46
2023-03-18T09:56:38.067Z,37.46
2023-03-18T09:57:38.210Z,37.44
2023-03-18T09:58:38.212Z,37.45
2023-03-18T09:59:38.283Z,37.44
2023-03-18T10:00:38.389Z,37.45
2023-03-18T10:01:38.464Z,37.44
2023-03-18T10:02:38.495Z,37.44
2023-03-18T10:03:38.630Z,37.42
2023-03-18T10:04:38.627Z,37.43
2023-03-18T11:39:45.005Z,37.16
2023-03-18T11:40:45.147Z,37.17
2023-03-18T11:41:45.134Z,37.15
2023-03-18T11:42:45.190Z,37.17
2023-03-18T11:43:45.262Z,37.17
2023-03-18T11:44:45.320Z,37.15
2023-03-18T11:45:45.377Z,37.16
2023-03-18T11:46:45.485Z,37.17
2023-03-18T11:47:45.500Z,37.14
2023-03-18T11:48:45.581Z,37.12
2023-03-18T11:49:45.635Z,37.12
2023-03-18T11:50:45.705Z,37.13
2023-03-18T11:51:45.779Z,37.12
2023-03-18T11:52:45.838Z,37.13
2023-03-18T11:53:45.896Z,37.12
2023-03-18T11:54:46.122Z,37.12
2023-03-18T11:55:46.037Z,37.12
2023-03-18T11:56:46.086Z,37.09
2023-03-18T11:57:46.169Z,37.09
2023-03-18T11:58:46.224Z,37.11
2023-03-18T11:59:46.296Z,37.12
2023-03-18T12:00:46.364Z,37.08
2023-03-18T12:01:46.426Z,37.06
2023-03-18T12:02:46.505Z,37.07
2023-03-18T12:03:46.600Z,37.08
2023-03-18T12:04:46.729Z,37.07
2023-03-18T12:05:46.706Z,37.08
2023-03-18T12:06:46.767Z,37.09
2023-03-18T12:07:46.837Z,37.10
2023-03-18T12:08:46.925Z,37.09
2023-03-18T12:09:46.980Z,37.08
2023-03-18T12:10:47.093Z,37.08
2023-03-18T12:11:47.165Z,37.08
2023-03-18T12:12:47.179Z,37.06
2023-03-18T12:13:47.256Z,37.05
2023-03-18T12:14:47.314Z,37.05
2023-03-18T12:15:47.372Z,37.04
2023-03-18T12:16:47.513Z,37.05
2023-03-18T12:17:47.510Z,37.06
2023-03-18T12:18:47.574Z,37.05
2023-03-18T12:19:47.634Z,37.05
2023-03-18T12:20:47.716Z,37.03
2023-03-18T12:21:47.846Z,37.02
2023-03-18T12:22:47.831Z,37.01
2023-03-18T12:23:50.040Z,37.02
2023-03-18T12:24:47.958Z,37.01
2023-03-18T12:25:48.031Z,37.00
2023-03-18T12:26:48.084Z,36.99
2023-03-18T12:27:48.154Z,37.04
2023-03-18T12:28:48.244Z,37.00
2023-03-18T12:29:48.286Z,36.97
2023-03-18T12:30:48.361Z,36.98
2023-03-18T12:31:48.507Z,36.99
2023-03-18T12:32:48.503Z,36.99
2023-03-18T12:33:48.538Z,36.98
2023-03-18T12:34:48.627Z,36.97
2023-03-18T12:35:48.705Z,36.95
2023-03-18T12:36:48.756Z,36.99
2023-03-18T12:37:48.812Z,36.95
2023-03-18T12:38:48.881Z,36.95
2023-03-18T12:39:48.952Z,36.95
2023-03-18T12:40:49.029Z,36.96
2023-03-18T12:41:49.097Z,36.94
2023-03-18T12:42:49.152Z,36.94
2023-03-18T12:46:49.493Z,36.91
2023-03-18T14:10:02.437Z,36.56
2023-03-18T14:11:55.106Z,36.53
2023-03-18T14:12:55.011Z,36.52
2023-03-18T14:13:55.078Z,36.52
2023-03-18T14:14:55.027Z,36.50
2023-03-18T14:15:55.056Z,36.49
2023-03-18T14:16:55.030Z,36.46
2023-03-18T14:17:55.037Z,36.49
2023-03-18T14:18:55.042Z,36.44
2023-03-18T14:19:55.042Z,36.46
2023-03-18T14:20:55.058Z,36.45
2023-03-18T14:21:55.142Z,36.47
2023-03-18T14:22:55.200Z,36.48
2023-03-18T14:23:55.264Z,36.47
2023-03-18T14:25:55.403Z,36.47
2023-03-18T14:26:55.466Z,36.48
2023-03-18T14:27:55.543Z,36.47
2023-03-18T14:29:55.656Z,36.51
2023-03-18T14:30:55.772Z,36.49
2023-03-18T14:31:55.781Z,36.50
2023-03-18T14:32:55.881Z,36.50
2023-03-18T16:47:04.983Z,36.86
2023-03-18T16:48:05.014Z,36.85
2023-03-18T16:49:05.036Z,36.85
2023-03-18T16:50:05.032Z,36.87
2023-03-18T16:51:05.151Z,36.86
2023-03-18T16:52:05.938Z,36.86
2023-03-18T16:53:05.142Z,36.88
2023-03-18T16:54:05.168Z,36.88
2023-03-18T16:55:05.189Z,36.90
2023-03-18T16:56:05.215Z,36.89
2023-03-18T16:57:05.253Z,36.87
2023-03-18T16:58:05.337Z,36.87
2023-03-18T16:59:05.330Z,36.88
2023-03-18T17:00:05.422Z,36.91
2023-03-18T17:01:05.437Z,36.92
2023-03-18T17:05:05.591Z,36.93
2023-03-18T17:06:05.591Z,36.94
2023-03-18T17:23:06.086Z,37.05
2023-03-18T17:24:06.147Z,37.06
2023-03-18T17:26:06.239Z,37.07
2023-03-18T17:27:06.412Z,37.07
2023-03-18T17:28:06.293Z,37.05
2023-03-18T17:29:06.366Z,37.07
2023-03-18T17:30:06.452Z,37.07
2023-03-18T17:31:06.556Z,37.09
2023-03-18T17:32:06.512Z,37.09
2023-03-18T17:33:06.628Z,37.08
2023-03-18T17:34:06.556Z,37.09
2023-03-18T17:35:06.630Z,37.07
2023-03-18T17:36:06.794Z,37.07
2023-03-18T17:37:06.719Z,37.10
2023-03-18T17:38:06.784Z,37.12
2023-03-18T17:39:06.961Z,37.12
2023-03-18T17:40:06.842Z,37.11
2023-03-18T17:41:06.983Z,37.12
2023-03-18T17:42:06.988Z,37.11
2023-03-18T17:43:06.987Z,37.12
2023-03-18T17:44:07.069Z,37.13
2023-03-18T17:45:07.116Z,37.13
2023-03-18T17:46:07.226Z,37.15
2023-03-18T17:47:07.459Z,37.15
2023-03-18T17:49:07.377Z,37.15
2023-03-18T17:50:07.951Z,37.15
2023-03-18T17:51:07.967Z,37.13
2023-03-18T17:52:07.564Z,37.15
2023-03-18T17:53:07.644Z,37.15
2023-03-18T17:54:07.731Z,37.15
2023-03-18T17:55:07.773Z,37.14
2023-03-18T17:56:07.832Z,37.12
2023-03-18T17:57:07.882Z,37.15
2023-03-18T17:58:08.013Z,37.14
2023-03-18T17:59:08.001Z,37.15
2023-03-18T18:00:08.045Z,37.14
2023-03-18T18:01:08.049Z,37.16
2023-03-18T18:02:08.185Z,37.17
2023-03-18T18:03:08.181Z,37.16
2023-03-18T18:04:08.170Z,37.14
2023-03-18T18:05:08.228Z,37.13
2023-03-18T18:06:08.460Z,37.17
2023-03-18T18:07:08.336Z,37.16
2023-03-18T18:08:08.406Z,37.15
2023-03-18T18:09:08.454Z,37.15
2023-03-18T18:10:08.524Z,37.16
2023-03-18T18:11:08.556Z,37.14
2023-03-18T18:12:08.596Z,37.18
2023-03-18T18:13:08.624Z,37.14
2023-03-18T18:14:08.671Z,37.16
2023-03-18T18:15:08.719Z,37.19
2023-03-18T18:16:08.854Z,37.15
2023-03-18T18:17:08.762Z,37.17
2023-03-18T18:18:09.460Z,37.16
2023-03-18T18:19:08.821Z,37.16
2023-03-18T18:20:08.978Z,37.16
2023-03-18T18:21:08.840Z,37.18
2023-03-18T18:22:08.857Z,37.18
2023-03-18T18:23:08.881Z,37.17
2023-03-18T18:24:09.404Z,37.17
2023-03-18T18:25:08.937Z,37.19
2023-03-18T18:26:08.952Z,37.17
2023-03-18T18:27:08.963Z,37.17
2023-03-18T18:28:08.961Z,37.20
2023-03-18T18:29:08.988Z,37.19
2023-03-18T18:30:09.003Z,37.19
2023-03-18T18:31:09.181Z,37.19
2023-03-18T18:32:09.109Z,37.20
2023-03-18T18:33:09.067Z,37.18
2023-03-18T18:34:09.075Z,37.17
2023-03-18T18:35:09.128Z,37.17
2023-03-18T18:36:09.209Z,37.21
2023-03-18T18:37:09.486Z,37.21
2023-03-18T18:38:09.238Z,37.21
2023-03-18T18:39:09.259Z,37.19
2023-03-18T18:40:09.310Z,37.20
2023-03-18T18:41:09.316Z,37.19
2023-03-18T18:42:09.320Z,37.19
2023-03-18T18:43:09.342Z,37.20
2023-03-18T18:44:09.371Z,37.20
2023-03-18T18:45:09.395Z,37.20
2023-03-18T18:46:09.483Z,37.20
2023-03-18T18:47:09.486Z,37.21
2023-03-18T18:48:09.525Z,37.20
2023-03-18T18:49:09.563Z,37.23
2023-03-18T18:50:09.601Z,37.21
2023-03-18T18:51:09.674Z,37.22
2023-03-18T18:52:09.737Z,37.21
2023-03-18T18:53:09.777Z,37.20
2023-03-18T18:54:09.829Z,37.20
2023-03-18T18:55:09.827Z,37.21
2023-03-18T18:56:09.870Z,37.20
2023-03-18T18:57:09.914Z,37.21
2023-03-18T18:58:09.955Z,37.19
2023-03-18T18:59:09.983Z,37.22
2023-03-18T19:00:10.012Z,37.23
2023-03-18T19:01:10.161Z,37.21
2023-03-18T19:02:10.140Z,37.22
2023-03-18T19:03:10.200Z,37.20
2023-03-18T19:04:10.309Z,37.21
2023-03-18T19:05:10.273Z,37.24
2023-03-18T19:06:10.320Z,37.23
2023-03-18T19:07:10.344Z,37.23
2023-03-18T19:08:10.386Z,37.21
2023-03-18T19:09:10.482Z,37.23
2023-03-18T19:10:10.432Z,37.23
2023-03-18T19:11:10.444Z,37.21
2023-03-18T19:12:10.465Z,37.21
2023-03-18T19:13:10.493Z,37.22
2023-03-18T19:14:10.513Z,37.25
2023-03-18T19:15:10.622Z,37.23
2023-03-18T19:16:10.604Z,37.24
2023-03-18T19:17:10.636Z,37.23
2023-03-18T19:18:10.601Z,37.24
2023-03-18T19:19:10.634Z,37.23
2023-03-18T19:20:10.679Z,37.22
2023-03-18T19:21:10.713Z,37.22
2023-03-18T19:22:10.734Z,37.23
2023-03-18T19:23:10.767Z,37.24
2023-03-18T19:24:11.497Z,37.24
2023-03-18T19:25:10.827Z,37.24
2023-03-18T19:26:10.901Z,37.26
2023-03-18T19:27:10.876Z,37.24
2023-03-18T19:28:10.916Z,37.23
2023-03-18T19:29:10.939Z,37.26
2023-03-18T19:30:10.965Z,37.26
2023-03-18T19:31:10.986Z,37.24
2023-03-18T19:32:11.025Z,37.25
2023-03-18T19:33:11.049Z,37.24
2023-03-18T19:34:11.078Z,37.27
2023-03-18T19:35:11.099Z,37.24
2023-03-18T19:36:11.146Z,37.25
2023-03-18T19:37:11.129Z,37.26
2023-03-18T19:38:11.147Z,37.25
2023-03-18T19:39:11.152Z,37.24
2023-03-18T19:40:11.167Z,37.27
2023-03-18T19:41:11.189Z,37.24
2023-03-18T19:42:11.203Z,37.23
2023-03-18T19:43:11.237Z,37.26
2023-03-18T19:44:11.261Z,37.26
2023-03-18T19:45:11.302Z,37.25
2023-03-18T19:46:11.446Z,37.27
2023-03-18T19:47:11.335Z,37.25
2023-03-18T19:48:11.417Z,37.26
2023-03-18T19:49:11.382Z,37.28
2023-03-18T19:50:11.391Z,37.28
2023-03-18T19:51:11.437Z,37.27
2023-03-18T19:52:11.488Z,37.26
2023-03-18T19:53:11.595Z,37.27
2023-03-18T19:54:11.520Z,37.24
2023-03-18T19:55:11.545Z,37.27
2023-03-18T19:56:11.572Z,37.28
2023-03-18T19:57:11.576Z,37.26
2023-03-18T19:58:11.592Z,37.29
2023-03-18T19:59:11.617Z,37.28
2023-03-18T20:00:11.671Z,37.27
2023-03-18T20:01:11.706Z,37.25
2023-03-18T20:02:12.006Z,37.24
2023-03-18T20:03:11.796Z,37.27
2023-03-18T20:04:12.599Z,37.26
2023-03-18T20:05:11.866Z,37.27
2023-03-18T20:06:11.911Z,37.27
2023-03-18T20:07:11.970Z,37.26
2023-03-18T20:08:12.071Z,37.28
2023-03-18T20:09:12.024Z,37.27
2023-03-18T20:10:12.115Z,37.24
2023-03-18T20:11:12.103Z,37.26
2023-03-18T20:12:12.234Z,37.25
2023-03-18T20:13:12.227Z,37.26
2023-03-18T20:14:12.262Z,37.26
2023-03-18T20:15:12.299Z,37.26
2023-03-18T20:16:12.331Z,37.22
2023-03-18T20:17:12.337Z,37.25
2023-03-18T20:18:12.360Z,37.26
2023-03-18T20:19:12.381Z,37.26
2023-03-18T20:20:12.429Z,37.26
2023-03-18T20:21:12.477Z,37.26
2023-03-18T20:22:12.548Z,37.23
2023-03-18T20:23:12.586Z,37.26
2023-03-18T20:24:12.543Z,37.23
2023-03-18T20:25:12.544Z,37.24
2023-03-18T20:26:12.584Z,37.25
2023-03-18T20:27:12.577Z,37.25
2023-03-18T20:28:12.613Z,37.24
2023-03-18T20:29:12.625Z,37.25
2023-03-18T20:30:12.652Z,37.21
2023-03-18T20:31:12.742Z,37.22
2023-03-18T20:32:12.678Z,37.21
2023-03-18T20:33:12.738Z,37.25
2023-03-18T20:34:12.733Z,37.24
2023-03-18T20:35:12.752Z,37.25
2023-03-18T20:36:12.814Z,37.23
2023-03-18T20:37:12.876Z,37.22
2023-03-18T20:38:12.923Z,37.24
2023-03-18T20:39:12.981Z,37.23
2023-03-18T20:40:13.035Z,37.23
2023-03-18T20:41:13.077Z,37.22
2023-03-18T20:42:13.148Z,37.22
2023-03-18T20:43:13.212Z,37.23
2023-03-18T20:44:13.295Z,37.23
2023-03-18T20:45:15.480Z,37.22
2023-03-18T20:46:13.483Z,37.21
2023-03-18T20:47:13.494Z,37.22
2023-03-18T20:48:13.523Z,37.23
2023-03-18T20:49:13.574Z,37.22
2023-03-18T20:50:13.602Z,37.19
2023-03-18T20:51:13.647Z,37.22
2023-03-18T20:52:13.709Z,37.20
2023-03-18T20:53:13.771Z,37.24
2023-03-18T20:54:13.851Z,37.23
2023-03-18T20:55:13.918Z,37.22
2023-03-18T20:56:13.964Z,37.21
2023-03-18T21:01:14.212Z,37.21
2023-03-18T21:08:15.032Z,37.19
2023-03-18T21:15:14.987Z,37.17
2023-03-18T21:16:15.234Z,37.18
2023-03-18T21:17:15.203Z,37.21
2023-03-18T21:18:15.131Z,37.19
2023-03-18T21:19:15.144Z,37.18
2023-03-18T21:20:22.031Z,37.17
2023-03-18T21:21:16.182Z,37.19
2023-03-18T21:22:15.184Z,37.16
2023-03-18T21:23:15.207Z,37.21
2023-03-18T21:24:15.217Z,37.18
2023-03-18T21:25:15.223Z,37.20
2023-03-18T21:26:15.248Z,37.15
2023-03-18T21:27:16.076Z,37.17
2023-03-18T21:28:15.260Z,37.16
2023-03-18T21:29:15.269Z,37.16
2023-03-18T21:30:15.318Z,37.18
2023-03-18T21:31:15.302Z,37.16
2023-03-18T21:32:15.572Z,37.16
2023-03-18T21:33:15.326Z,37.18
2023-03-18T21:34:15.338Z,37.16
2023-03-18T21:35:15.381Z,37.16
2023-03-18T21:36:15.457Z,37.19
2023-03-18T21:37:15.455Z,37.17
2023-03-18T21:38:15.575Z,37.17
2023-03-18T21:39:15.538Z,37.16
2023-03-18T21:40:16.552Z,37.17
2023-03-18T21:41:15.665Z,37.17
2023-03-18T21:42:15.606Z,37.17
2023-03-18T21:43:15.649Z,37.16
2023-03-18T21:44:15.693Z,37.15
2023-03-18T21:45:15.765Z,37.17
2023-03-18T21:46:15.941Z,37.16
2023-03-18T21:47:15.875Z,37.16
2023-03-18T21:48:15.912Z,37.16
2023-03-18T21:49:15.944Z,37.18
2023-03-18T21:50:15.965Z,37.16
2023-03-18T21:51:28.036Z,37.15
2023-03-18T21:52:17.071Z,37.17
2023-03-18T21:53:16.960Z,37.18
2023-03-18T21:54:16.039Z,37.16
2023-03-18T21:55:16.970Z,37.16
2023-03-18T21:56:16.041Z,37.17
2023-03-18T21:57:16.063Z,37.16
2023-03-18T21:58:16.083Z,37.15
2023-03-18T21:59:16.088Z,37.15
2023-03-18T22:00:16.110Z,37.15
2023-03-18T22:01:16.142Z,37.14
2023-03-18T22:02:16.125Z,37.14
2023-03-18T22:03:16.215Z,37.13
2023-03-18T22:04:16.270Z,37.14
2023-03-18T22:05:16.277Z,37.15
2023-03-18T22:06:16.293Z,37.14
2023-03-18T22:07:17.042Z,37.13
2023-03-18T22:08:16.401Z,37.15
2023-03-18T22:09:16.449Z,37.13
2023-03-18T22:10:16.515Z,37.14
2023-03-18T22:11:16.562Z,37.15
2023-03-18T22:12:16.634Z,37.15
2023-03-18T22:13:16.716Z,37.12
2023-03-18T22:14:17.054Z,37.13
2023-03-18T22:15:16.793Z,37.16
2023-03-18T22:16:16.943Z,37.12
2023-03-18T22:17:16.934Z,37.13
2023-03-18T22:18:16.911Z,37.13
2023-03-18T22:19:19.552Z,37.12
2023-03-18T22:20:17.173Z,37.11
2023-03-18T22:21:17.206Z,37.13
2023-03-18T22:23:17.246Z,37.14
2023-03-18T22:24:17.320Z,37.10
2023-03-18T22:25:17.564Z,37.12
2023-03-18T22:26:17.328Z,37.13
2023-03-18T22:27:17.393Z,37.12
2023-03-18T22:28:17.407Z,37.14
2023-03-18T22:29:17.445Z,37.13
2023-03-18T22:30:17.567Z,37.12
2023-03-18T22:31:17.651Z,37.14
2023-03-18T22:32:18.606Z,37.13
2023-03-18T22:33:17.594Z,37.15
2023-03-18T22:34:17.692Z,37.13
2023-03-18T22:35:17.671Z,37.15
2023-03-18T22:36:17.686Z,37.13
2023-03-18T22:37:17.728Z,37.12
2023-03-18T22:38:17.765Z,37.15
2023-03-18T22:39:17.852Z,37.13
2023-03-18T22:40:17.872Z,37.12
2023-03-18T22:41:18.069Z,37.12
2023-03-18T22:42:17.979Z,37.12
2023-03-18T22:43:18.052Z,37.12
2023-03-18T22:44:18.123Z,37.11
2023-03-18T22:45:18.184Z,37.12
2023-03-18T22:46:18.321Z,37.12
2023-03-18T22:47:18.290Z,37.12
2023-03-18T22:48:18.342Z,37.12
2023-03-18T22:49:18.404Z,37.12
2023-03-18T22:50:18.465Z,37.11
2023-03-18T22:51:18.506Z,37.09
2023-03-18T22:52:18.560Z,37.12
2023-03-18T22:53:18.602Z,37.12
2023-03-18T22:54:18.682Z,37.11
2023-03-18T22:55:18.718Z,37.12
2023-03-18T22:56:18.740Z,37.10
2023-03-18T22:57:18.782Z,37.12
2023-03-18T22:58:18.814Z,37.11
2023-03-18T22:59:18.830Z,37.10
2023-03-18T23:00:18.861Z,37.08
2023-03-18T23:01:18.957Z,37.12
2023-03-18T23:02:18.938Z,37.11
2023-03-18T23:03:19.019Z,37.11
2023-03-18T23:04:19.756Z,37.11
2023-03-18T23:05:19.066Z,37.12
2023-03-18T23:06:19.120Z,37.11
2023-03-18T23:07:19.121Z,37.08
2023-03-18T23:08:19.137Z,37.11
2023-03-18T23:09:19.156Z,37.07
2023-03-18T23:10:19.200Z,37.09
2023-03-18T23:11:19.237Z,37.09
2023-03-18T23:12:19.309Z,37.09
2023-03-18T23:13:19.360Z,37.11
2023-03-18T23:14:19.385Z,37.07
2023-03-18T23:15:19.429Z,37.12
2023-03-18T23:16:19.582Z,37.12
2023-03-18T23:17:19.495Z,37.10
2023-03-18T23:18:19.524Z,37.10
2023-03-18T23:19:19.572Z,37.10
2023-03-18T23:20:19.626Z,37.07
2023-03-18T23:21:19.617Z,37.12
2023-03-18T23:22:19.630Z,37.10
2023-03-18T23:23:19.694Z,37.12
2023-03-18T23:24:19.703Z,37.07
2023-03-18T23:25:19.727Z,37.11
2023-03-18T23:26:19.726Z,37.09
2023-03-18T23:27:19.731Z,37.08
2023-03-18T23:28:19.754Z,37.08
2023-03-18T23:29:20.574Z,37.07
2023-03-18T23:30:19.761Z,37.07
2023-03-18T23:31:19.793Z,37.11
2023-03-18T23:32:20.572Z,37.07
2023-03-18T23:33:19.792Z,37.12
2023-03-18T23:34:19.799Z,37.07
2023-03-18T23:35:19.807Z,37.09
2023-03-18T23:36:20.094Z,37.06
2023-03-18T23:37:19.829Z,37.07
2023-03-18T23:38:19.835Z,37.07
2023-03-18T23:39:19.862Z,37.10
2023-03-18T23:40:19.876Z,37.09
2023-03-18T23:41:19.883Z,37.10
2023-03-18T23:42:19.901Z,37.09
2023-03-18T23:43:19.938Z,37.10
2023-03-18T23:44:19.976Z,37.08
2023-03-18T23:45:20.037Z,37.07
2023-03-18T23:46:20.112Z,37.11
2023-03-18T23:47:20.071Z,37.06
2023-03-18T23:48:20.136Z,37.10
2023-03-18T23:49:20.175Z,37.09
2023-03-18T23:50:20.200Z,37.10
2023-03-18T23:51:20.219Z,37.07
2023-03-18T23:52:20.249Z,37.07
2023-03-18T23:53:20.268Z,37.10
2023-03-18T23:54:20.280Z,37.06
2023-03-18T23:55:33.605Z,37.09
2023-03-18T23:56:21.324Z,37.09
2023-03-18T23:57:20.320Z,37.09
2023-03-18T23:58:20.341Z,37.10
2023-03-18T23:59:20.354Z,37.10
